sensor_id;sensor_type;location;lat;lon;timestamp;P1;durP1;ratioP1;P2;durP2;ratioP2
62707;SDS011;48769;51.624;5.886;2023-11-19T00:01:44;18.88;;;15.70;;
62707;SDS011;48769;51.624;5.886;2023-11-19T00:04:12;22.13;;;15.25;;
62707;SDS011;48769;51.624;5.886;2023-11-19T00:06:37;23.52;;;16.27;;
62707;SDS011;48769;51.624;5.886;2023-11-19T00:09:02;22.13;;;16.30;;
62707;SDS011;48769;51.624;5.886;2023-11-19T00:11:28;18.60;;;15.65;;
62707;SDS011;48769;51.624;5.886;2023-11-19T00:13:54;23.75;;;16.13;;
62707;SDS011;48769;51.624;5.886;2023-11-19T00:16:19;22.30;;;16.65;;
62707;SDS011;48769;51.624;5.886;2023-11-19T00:18:44;20.70;;;15.13;;
62707;SDS011;48769;51.624;5.886;2023-11-19T00:21:10;23.98;;;15.82;;
62707;SDS011;48769;51.624;5.886;2023-11-19T00:23:35;20.00;;;15.15;;
62707;SDS011;48769;51.624;5.886;2023-11-19T00:26:01;21.08;;;16.08;;
62707;SDS011;48769;51.624;5.886;2023-11-19T00:28:26;24.67;;;15.43;;
62707;SDS011;48769;51.624;5.886;2023-11-19T00:30:52;20.95;;;15.07;;
62707;SDS011;48769;51.624;5.886;2023-11-19T00:33:18;19.88;;;14.43;;
62707;SDS011;48769;51.624;5.886;2023-11-19T00:35:43;23.15;;;13.95;;
62707;SDS011;48769;51.624;5.886;2023-11-19T00:38:08;20.17;;;13.52;;
62707;SDS011;48769;51.624;5.886;2023-11-19T00:40:33;18.50;;;14.15;;
62707;SDS011;48769;51.624;5.886;2023-11-19T00:42:59;19.33;;;13.40;;
62707;SDS011;48769;51.624;5.886;2023-11-19T00:45:24;22.58;;;12.45;;
62707;SDS011;48769;51.624;5.886;2023-11-19T00:47:50;21.67;;;12.27;;
62707;SDS011;48769;51.624;5.886;2023-11-19T00:50:15;21.83;;;12.07;;
62707;SDS011;48769;51.624;5.886;2023-11-19T00:52:41;22.63;;;12.05;;
62707;SDS011;48769;51.624;5.886;2023-11-19T00:55:06;25.63;;;11.48;;
62707;SDS011;48769;51.624;5.886;2023-11-19T00:57:32;22.45;;;10.73;;
62707;SDS011;48769;51.624;5.886;2023-11-19T00:59:58;20.30;;;11.35;;
62707;SDS011;48769;51.624;5.886;2023-11-19T01:02:24;17.95;;;10.30;;
62707;SDS011;48769;51.624;5.886;2023-11-19T01:04:49;21.73;;;10.07;;
62707;SDS011;48769;51.624;5.886;2023-11-19T01:07:15;16.50;;;9.00;;
62707;SDS011;48769;51.624;5.886;2023-11-19T01:09:41;19.52;;;9.20;;
62707;SDS011;48769;51.624;5.886;2023-11-19T01:12:07;19.15;;;8.90;;
62707;SDS011;48769;51.624;5.886;2023-11-19T01:14:32;18.20;;;8.57;;
62707;SDS011;48769;51.624;5.886;2023-11-19T01:16:57;20.90;;;8.30;;
62707;SDS011;48769;51.624;5.886;2023-11-19T01:19:23;20.63;;;8.45;;
62707;SDS011;48769;51.624;5.886;2023-11-19T01:21:49;21.38;;;8.10;;
62707;SDS011;48769;51.624;5.886;2023-11-19T01:24:15;21.77;;;8.40;;
62707;SDS011;48769;51.624;5.886;2023-11-19T01:26:41;17.92;;;7.40;;
62707;SDS011;48769;51.624;5.886;2023-11-19T01:29:11;18.90;;;7.70;;
62707;SDS011;48769;51.624;5.886;2023-11-19T01:31:39;18.05;;;7.10;;
62707;SDS011;48769;51.624;5.886;2023-11-19T01:34:05;13.32;;;6.30;;
62707;SDS011;48769;51.624;5.886;2023-11-19T01:36:30;25.35;;;6.75;;
62707;SDS011;48769;51.624;5.886;2023-11-19T01:38:55;16.85;;;6.28;;
62707;SDS011;48769;51.624;5.886;2023-11-19T01:41:20;19.05;;;6.55;;
62707;SDS011;48769;51.624;5.886;2023-11-19T01:43:46;24.30;;;6.22;;
62707;SDS011;48769;51.624;5.886;2023-11-19T01:46:12;19.67;;;5.68;;
62707;SDS011;48769;51.624;5.886;2023-11-19T01:48:41;21.23;;;6.88;;
62707;SDS011;48769;51.624;5.886;2023-11-19T01:51:09;23.13;;;6.45;;
62707;SDS011;48769;51.624;5.886;2023-11-19T01:53:35;19.35;;;5.97;;
62707;SDS011;48769;51.624;5.886;2023-11-19T01:56:02;17.77;;;6.20;;
62707;SDS011;48769;51.624;5.886;2023-11-19T01:58:29;26.15;;;6.18;;
62707;SDS011;48769;51.624;5.886;2023-11-19T02:00:56;20.20;;;6.15;;
62707;SDS011;48769;51.624;5.886;2023-11-19T02:03:22;20.67;;;5.88;;
62707;SDS011;48769;51.624;5.886;2023-11-19T02:05:50;23.08;;;5.60;;
62707;SDS011;48769;51.624;5.886;2023-11-19T02:08:16;20.33;;;5.88;;
62707;SDS011;48769;51.624;5.886;2023-11-19T02:10:41;22.10;;;7.47;;
62707;SDS011;48769;51.624;5.886;2023-11-19T02:13:08;18.63;;;5.18;;
62707;SDS011;48769;51.624;5.886;2023-11-19T02:15:35;15.60;;;6.63;;
62707;SDS011;48769;51.624;5.886;2023-11-19T02:18:17;22.15;;;6.47;;
62707;SDS011;48769;51.624;5.886;2023-11-19T02:20:43;27.10;;;5.95;;
62707;SDS011;48769;51.624;5.886;2023-11-19T02:23:09;32.75;;;6.45;;
62707;SDS011;48769;51.624;5.886;2023-11-19T02:25:34;22.13;;;5.28;;
62707;SDS011;48769;51.624;5.886;2023-11-19T02:28:01;21.35;;;5.50;;
62707;SDS011;48769;51.624;5.886;2023-11-19T02:30:28;30.05;;;6.35;;
62707;SDS011;48769;51.624;5.886;2023-11-19T02:32:57;24.52;;;6.32;;
62707;SDS011;48769;51.624;5.886;2023-11-19T02:35:30;25.73;;;6.35;;
62707;SDS011;48769;51.624;5.886;2023-11-19T02:37:56;24.10;;;5.63;;
62707;SDS011;48769;51.624;5.886;2023-11-19T02:40:22;26.95;;;6.55;;
62707;SDS011;48769;51.624;5.886;2023-11-19T02:42:49;23.45;;;5.53;;
62707;SDS011;48769;51.624;5.886;2023-11-19T02:45:15;19.40;;;5.45;;
62707;SDS011;48769;51.624;5.886;2023-11-19T02:47:40;27.48;;;6.70;;
62707;SDS011;48769;51.624;5.886;2023-11-19T02:50:12;27.58;;;6.53;;
62707;SDS011;48769;51.624;5.886;2023-11-19T02:52:39;26.65;;;7.47;;
62707;SDS011;48769;51.624;5.886;2023-11-19T02:55:07;24.40;;;7.40;;
62707;SDS011;48769;51.624;5.886;2023-11-19T02:57:35;31.67;;;8.40;;
62707;SDS011;48769;51.624;5.886;2023-11-19T03:00:00;25.38;;;7.63;;
62707;SDS011;48769;51.624;5.886;2023-11-19T03:02:26;25.17;;;6.82;;
62707;SDS011;48769;51.624;5.886;2023-11-19T03:04:58;31.42;;;7.63;;
62707;SDS011;48769;51.624;5.886;2023-11-19T03:07:24;27.73;;;7.07;;
62707;SDS011;48769;51.624;5.886;2023-11-19T03:09:50;34.58;;;7.03;;
62707;SDS011;48769;51.624;5.886;2023-11-19T03:12:15;27.85;;;6.57;;
62707;SDS011;48769;51.624;5.886;2023-11-19T03:14:40;31.73;;;6.63;;
62707;SDS011;48769;51.624;5.886;2023-11-19T03:17:06;27.60;;;6.65;;
62707;SDS011;48769;51.624;5.886;2023-11-19T03:19:31;32.08;;;6.13;;
62707;SDS011;48769;51.624;5.886;2023-11-19T03:21:56;28.35;;;6.53;;
62707;SDS011;48769;51.624;5.886;2023-11-19T03:24:21;30.35;;;7.88;;
62707;SDS011;48769;51.624;5.886;2023-11-19T03:26:48;34.33;;;6.88;;
62707;SDS011;48769;51.624;5.886;2023-11-19T03:29:15;31.75;;;7.13;;
62707;SDS011;48769;51.624;5.886;2023-11-19T03:31:43;27.30;;;7.18;;
62707;SDS011;48769;51.624;5.886;2023-11-19T03:34:09;30.70;;;6.55;;
62707;SDS011;48769;51.624;5.886;2023-11-19T03:36:35;31.05;;;7.80;;
62707;SDS011;48769;51.624;5.886;2023-11-19T03:39:00;35.28;;;7.30;;
62707;SDS011;48769;51.624;5.886;2023-11-19T03:41:26;28.60;;;6.38;;
62707;SDS011;48769;51.624;5.886;2023-11-19T03:43:51;34.72;;;6.22;;
62707;SDS011;48769;51.624;5.886;2023-11-19T03:46:20;30.25;;;6.55;;
62707;SDS011;48769;51.624;5.886;2023-11-19T03:48:46;33.22;;;6.80;;
62707;SDS011;48769;51.624;5.886;2023-11-19T03:51:13;40.63;;;6.60;;
62707;SDS011;48769;51.624;5.886;2023-11-19T03:53:44;46.20;;;8.23;;
62707;SDS011;48769;51.624;5.886;2023-11-19T03:56:10;35.20;;;6.47;;
62707;SDS011;48769;51.624;5.886;2023-11-19T03:58:36;33.33;;;5.95;;
62707;SDS011;48769;51.624;5.886;2023-11-19T04:01:03;37.20;;;7.10;;
62707;SDS011;48769;51.624;5.886;2023-11-19T04:03:29;28.63;;;5.60;;
62707;SDS011;48769;51.624;5.886;2023-11-19T04:05:54;35.83;;;6.72;;
62707;SDS011;48769;51.624;5.886;2023-11-19T04:08:19;33.03;;;6.70;;
62707;SDS011;48769;51.624;5.886;2023-11-19T04:10:45;39.58;;;6.90;;
62707;SDS011;48769;51.624;5.886;2023-11-19T04:13:10;46.42;;;7.15;;
62707;SDS011;48769;51.624;5.886;2023-11-19T04:15:35;35.83;;;7.25;;
62707;SDS011;48769;51.624;5.886;2023-11-19T04:18:01;34.55;;;6.15;;
62707;SDS011;48769;51.624;5.886;2023-11-19T04:20:26;41.08;;;6.95;;
62707;SDS011;48769;51.624;5.886;2023-11-19T04:22:51;42.70;;;6.68;;
62707;SDS011;48769;51.624;5.886;2023-11-19T04:25:16;41.17;;;6.32;;
62707;SDS011;48769;51.624;5.886;2023-11-19T04:27:44;45.10;;;7.68;;
62707;SDS011;48769;51.624;5.886;2023-11-19T04:30:09;47.22;;;6.80;;
62707;SDS011;48769;51.624;5.886;2023-11-19T04:32:35;46.88;;;7.68;;
62707;SDS011;48769;51.624;5.886;2023-11-19T04:35:01;38.10;;;7.68;;
62707;SDS011;48769;51.624;5.886;2023-11-19T04:37:26;40.53;;;7.28;;
62707;SDS011;48769;51.624;5.886;2023-11-19T04:39:52;42.70;;;6.93;;
62707;SDS011;48769;51.624;5.886;2023-11-19T04:42:17;43.92;;;8.00;;
62707;SDS011;48769;51.624;5.886;2023-11-19T04:44:42;36.28;;;6.90;;
62707;SDS011;48769;51.624;5.886;2023-11-19T04:47:08;43.05;;;7.07;;
62707;SDS011;48769;51.624;5.886;2023-11-19T04:49:36;48.53;;;8.18;;
62707;SDS011;48769;51.624;5.886;2023-11-19T04:52:10;47.30;;;6.93;;
62707;SDS011;48769;51.624;5.886;2023-11-19T04:54:40;39.75;;;7.03;;
62707;SDS011;48769;51.624;5.886;2023-11-19T04:57:09;47.03;;;7.88;;
62707;SDS011;48769;51.624;5.886;2023-11-19T04:59:36;53.22;;;9.13;;
62707;SDS011;48769;51.624;5.886;2023-11-19T05:02:01;54.72;;;8.25;;
62707;SDS011;48769;51.624;5.886;2023-11-19T05:04:27;36.00;;;8.75;;
62707;SDS011;48769;51.624;5.886;2023-11-19T05:06:52;44.08;;;8.40;;
62707;SDS011;48769;51.624;5.886;2023-11-19T05:09:18;53.10;;;9.60;;
62707;SDS011;48769;51.624;5.886;2023-11-19T05:11:43;43.22;;;7.95;;
62707;SDS011;48769;51.624;5.886;2023-11-19T05:14:09;47.58;;;8.25;;
62707;SDS011;48769;51.624;5.886;2023-11-19T05:16:34;52.58;;;8.50;;
62707;SDS011;48769;51.624;5.886;2023-11-19T05:19:00;49.88;;;9.68;;
62707;SDS011;48769;51.624;5.886;2023-11-19T05:21:25;51.95;;;8.40;;
62707;SDS011;48769;51.624;5.886;2023-11-19T05:23:51;50.28;;;8.70;;
62707;SDS011;48769;51.624;5.886;2023-11-19T05:26:19;43.08;;;7.95;;
62707;SDS011;48769;51.624;5.886;2023-11-19T05:28:46;56.42;;;8.13;;
62707;SDS011;48769;51.624;5.886;2023-11-19T05:31:11;46.40;;;8.50;;
62707;SDS011;48769;51.624;5.886;2023-11-19T05:33:37;43.85;;;8.82;;
62707;SDS011;48769;51.624;5.886;2023-11-19T05:36:02;47.17;;;7.80;;
62707;SDS011;48769;51.624;5.886;2023-11-19T05:38:33;46.58;;;9.27;;
62707;SDS011;48769;51.624;5.886;2023-11-19T05:40:58;46.20;;;8.23;;
62707;SDS011;48769;51.624;5.886;2023-11-19T05:43:24;42.53;;;7.63;;
62707;SDS011;48769;51.624;5.886;2023-11-19T05:45:49;46.08;;;7.88;;
62707;SDS011;48769;51.624;5.886;2023-11-19T05:48:14;48.28;;;7.30;;
62707;SDS011;48769;51.624;5.886;2023-11-19T05:50:40;39.15;;;7.03;;
62707;SDS011;48769;51.624;5.886;2023-11-19T05:53:05;50.70;;;7.70;;
62707;SDS011;48769;51.624;5.886;2023-11-19T05:55:34;45.92;;;7.15;;
62707;SDS011;48769;51.624;5.886;2023-11-19T05:58:00;49.03;;;7.22;;
62707;SDS011;48769;51.624;5.886;2023-11-19T06:00:26;50.17;;;7.72;;
62707;SDS011;48769;51.624;5.886;2023-11-19T06:02:51;45.28;;;8.38;;
62707;SDS011;48769;51.624;5.886;2023-11-19T06:05:17;36.22;;;6.38;;
62707;SDS011;48769;51.624;5.886;2023-11-19T06:07:43;42.38;;;6.55;;
62707;SDS011;48769;51.624;5.886;2023-11-19T06:10:08;34.38;;;6.70;;
62707;SDS011;48769;51.624;5.886;2023-11-19T06:12:35;43.28;;;6.80;;
62707;SDS011;48769;51.624;5.886;2023-11-19T06:15:04;38.05;;;6.45;;
62707;SDS011;48769;51.624;5.886;2023-11-19T06:17:30;55.35;;;8.55;;
62707;SDS011;48769;51.624;5.886;2023-11-19T06:19:55;62.90;;;9.18;;
62707;SDS011;48769;51.624;5.886;2023-11-19T06:22:20;55.10;;;9.93;;
62707;SDS011;48769;51.624;5.886;2023-11-19T06:24:46;48.65;;;8.38;;
62707;SDS011;48769;51.624;5.886;2023-11-19T06:27:11;53.00;;;8.15;;
62707;SDS011;48769;51.624;5.886;2023-11-19T06:29:36;49.45;;;9.02;;
62707;SDS011;48769;51.624;5.886;2023-11-19T06:32:02;51.92;;;10.13;;
62707;SDS011;48769;51.624;5.886;2023-11-19T06:34:27;48.15;;;7.03;;
62707;SDS011;48769;51.624;5.886;2023-11-19T06:36:53;47.65;;;6.90;;
62707;SDS011;48769;51.624;5.886;2023-11-19T06:39:18;49.38;;;8.23;;
62707;SDS011;48769;51.624;5.886;2023-11-19T06:41:45;42.40;;;7.13;;
62707;SDS011;48769;51.624;5.886;2023-11-19T06:44:11;51.55;;;8.27;;
62707;SDS011;48769;51.624;5.886;2023-11-19T06:46:36;48.13;;;7.30;;
62707;SDS011;48769;51.624;5.886;2023-11-19T06:49:02;59.28;;;9.38;;
62707;SDS011;48769;51.624;5.886;2023-11-19T06:51:27;49.05;;;8.15;;
62707;SDS011;48769;51.624;5.886;2023-11-19T06:53:52;52.22;;;7.97;;
62707;SDS011;48769;51.624;5.886;2023-11-19T06:56:22;51.90;;;8.85;;
62707;SDS011;48769;51.624;5.886;2023-11-19T06:58:48;48.38;;;8.52;;
62707;SDS011;48769;51.624;5.886;2023-11-19T07:01:15;50.13;;;6.85;;
62707;SDS011;48769;51.624;5.886;2023-11-19T07:03:41;53.17;;;7.80;;
62707;SDS011;48769;51.624;5.886;2023-11-19T07:06:06;54.00;;;8.88;;
62707;SDS011;48769;51.624;5.886;2023-11-19T07:08:32;56.17;;;7.55;;
62707;SDS011;48769;51.624;5.886;2023-11-19T07:10:57;53.63;;;8.35;;
62707;SDS011;48769;51.624;5.886;2023-11-19T07:13:22;50.03;;;8.70;;
62707;SDS011;48769;51.624;5.886;2023-11-19T07:15:48;48.78;;;8.50;;
62707;SDS011;48769;51.624;5.886;2023-11-19T07:18:13;41.20;;;7.43;;
62707;SDS011;48769;51.624;5.886;2023-11-19T07:20:38;53.53;;;8.80;;
62707;SDS011;48769;51.624;5.886;2023-11-19T07:23:04;49.22;;;8.52;;
62707;SDS011;48769;51.624;5.886;2023-11-19T07:25:31;60.20;;;8.20;;
62707;SDS011;48769;51.624;5.886;2023-11-19T07:27:56;58.65;;;7.72;;
62707;SDS011;48769;51.624;5.886;2023-11-19T07:30:22;47.38;;;7.63;;
62707;SDS011;48769;51.624;5.886;2023-11-19T07:32:47;42.05;;;8.95;;
62707;SDS011;48769;51.624;5.886;2023-11-19T07:35:13;49.15;;;7.80;;
62707;SDS011;48769;51.624;5.886;2023-11-19T07:37:40;48.83;;;7.18;;
62707;SDS011;48769;51.624;5.886;2023-11-19T07:40:06;42.40;;;7.25;;
62707;SDS011;48769;51.624;5.886;2023-11-19T07:42:31;52.15;;;7.90;;
62707;SDS011;48769;51.624;5.886;2023-11-19T07:44:57;51.42;;;7.97;;
62707;SDS011;48769;51.624;5.886;2023-11-19T07:47:22;47.63;;;7.43;;
62707;SDS011;48769;51.624;5.886;2023-11-19T07:49:48;46.90;;;7.30;;
62707;SDS011;48769;51.624;5.886;2023-11-19T07:52:13;46.40;;;8.88;;
62707;SDS011;48769;51.624;5.886;2023-11-19T07:54:39;49.95;;;7.65;;
62707;SDS011;48769;51.624;5.886;2023-11-19T07:57:04;49.53;;;8.25;;
62707;SDS011;48769;51.624;5.886;2023-11-19T07:59:30;46.03;;;9.38;;
62707;SDS011;48769;51.624;5.886;2023-11-19T08:01:55;39.42;;;7.28;;
62707;SDS011;48769;51.624;5.886;2023-11-19T08:04:20;43.15;;;7.32;;
62707;SDS011;48769;51.624;5.886;2023-11-19T08:06:45;38.28;;;7.13;;
62707;SDS011;48769;51.624;5.886;2023-11-19T08:09:11;43.50;;;7.30;;
62707;SDS011;48769;51.624;5.886;2023-11-19T08:11:38;55.15;;;9.27;;
62707;SDS011;48769;51.624;5.886;2023-11-19T08:14:05;44.35;;;7.07;;
62707;SDS011;48769;51.624;5.886;2023-11-19T08:16:30;43.88;;;8.23;;
62707;SDS011;48769;51.624;5.886;2023-11-19T08:18:55;47.15;;;7.30;;
62707;SDS011;48769;51.624;5.886;2023-11-19T08:21:23;46.50;;;7.25;;
62707;SDS011;48769;51.624;5.886;2023-11-19T08:23:48;54.08;;;8.18;;
62707;SDS011;48769;51.624;5.886;2023-11-19T08:26:14;50.90;;;8.75;;
62707;SDS011;48769;51.624;5.886;2023-11-19T08:28:40;48.20;;;8.63;;
62707;SDS011;48769;51.624;5.886;2023-11-19T08:31:05;41.65;;;8.35;;
62707;SDS011;48769;51.624;5.886;2023-11-19T08:33:31;44.90;;;8.73;;
62707;SDS011;48769;51.624;5.886;2023-11-19T08:35:56;50.08;;;6.82;;
62707;SDS011;48769;51.624;5.886;2023-11-19T08:38:23;48.83;;;8.80;;
62707;SDS011;48769;51.624;5.886;2023-11-19T08:40:48;40.28;;;6.82;;
62707;SDS011;48769;51.624;5.886;2023-11-19T08:43:14;50.40;;;8.25;;
62707;SDS011;48769;51.624;5.886;2023-11-19T08:45:39;40.28;;;7.45;;
62707;SDS011;48769;51.624;5.886;2023-11-19T08:48:05;41.17;;;7.85;;
62707;SDS011;48769;51.624;5.886;2023-11-19T08:50:30;44.47;;;7.55;;
62707;SDS011;48769;51.624;5.886;2023-11-19T08:52:55;47.33;;;7.72;;
62707;SDS011;48769;51.624;5.886;2023-11-19T08:55:21;36.10;;;6.47;;
62707;SDS011;48769;51.624;5.886;2023-11-19T08:57:46;49.35;;;8.43;;
62707;SDS011;48769;51.624;5.886;2023-11-19T09:00:11;41.22;;;8.27;;
62707;SDS011;48769;51.624;5.886;2023-11-19T09:02:39;42.42;;;8.10;;
62707;SDS011;48769;51.624;5.886;2023-11-19T09:05:05;51.38;;;7.93;;
62707;SDS011;48769;51.624;5.886;2023-11-19T09:07:32;51.20;;;7.68;;
62707;SDS011;48769;51.624;5.886;2023-11-19T09:09:58;53.38;;;8.38;;
62707;SDS011;48769;51.624;5.886;2023-11-19T09:12:23;45.97;;;7.88;;
62707;SDS011;48769;51.624;5.886;2023-11-19T09:14:48;49.50;;;8.02;;
62707;SDS011;48769;51.624;5.886;2023-11-19T09:17:14;61.40;;;8.00;;
62707;SDS011;48769;51.624;5.886;2023-11-19T09:19:40;50.90;;;8.43;;
62707;SDS011;48769;51.624;5.886;2023-11-19T09:22:05;52.70;;;7.85;;
62707;SDS011;48769;51.624;5.886;2023-11-19T09:24:31;50.90;;;7.65;;
62707;SDS011;48769;51.624;5.886;2023-11-19T09:26:56;55.13;;;8.02;;
62707;SDS011;48769;51.624;5.886;2023-11-19T09:29:21;46.63;;;7.57;;
62707;SDS011;48769;51.624;5.886;2023-11-19T09:31:47;40.15;;;6.65;;
62707;SDS011;48769;51.624;5.886;2023-11-19T09:34:12;52.08;;;8.45;;
62707;SDS011;48769;51.624;5.886;2023-11-19T09:36:37;53.60;;;8.48;;
62707;SDS011;48769;51.624;5.886;2023-11-19T09:39:02;51.25;;;7.53;;
62707;SDS011;48769;51.624;5.886;2023-11-19T09:41:29;48.90;;;7.45;;
62707;SDS011;48769;51.624;5.886;2023-11-19T09:43:55;39.63;;;6.95;;
62707;SDS011;48769;51.624;5.886;2023-11-19T09:46:21;60.30;;;10.60;;
62707;SDS011;48769;51.624;5.886;2023-11-19T09:48:49;44.47;;;8.13;;
62707;SDS011;48769;51.624;5.886;2023-11-19T09:51:20;53.60;;;8.70;;
62707;SDS011;48769;51.624;5.886;2023-11-19T09:53:47;49.47;;;7.72;;
62707;SDS011;48769;51.624;5.886;2023-11-19T09:56:12;45.05;;;8.27;;
62707;SDS011;48769;51.624;5.886;2023-11-19T09:58:39;39.22;;;6.32;;
62707;SDS011;48769;51.624;5.886;2023-11-19T10:01:05;43.22;;;7.65;;
62707;SDS011;48769;51.624;5.886;2023-11-19T10:03:33;43.47;;;8.10;;
62707;SDS011;48769;51.624;5.886;2023-11-19T10:06:00;43.22;;;7.00;;
62707;SDS011;48769;51.624;5.886;2023-11-19T10:08:27;51.75;;;8.80;;
62707;SDS011;48769;51.624;5.886;2023-11-19T10:10:52;43.28;;;8.70;;
62707;SDS011;48769;51.624;5.886;2023-11-19T10:13:18;38.85;;;6.88;;
62707;SDS011;48769;51.624;5.886;2023-11-19T10:15:43;36.45;;;7.32;;
62707;SDS011;48769;51.624;5.886;2023-11-19T10:18:09;50.53;;;7.55;;
62707;SDS011;48769;51.624;5.886;2023-11-19T10:20:35;41.33;;;7.00;;
62707;SDS011;48769;51.624;5.886;2023-11-19T10:23:06;36.28;;;6.75;;
62707;SDS011;48769;51.624;5.886;2023-11-19T10:25:31;39.47;;;6.50;;
62707;SDS011;48769;51.624;5.886;2023-11-19T10:27:58;46.05;;;8.10;;
62707;SDS011;48769;51.624;5.886;2023-11-19T10:30:24;53.88;;;8.35;;
62707;SDS011;48769;51.624;5.886;2023-11-19T10:33:07;43.50;;;7.88;;
62707;SDS011;48769;51.624;5.886;2023-11-19T10:35:55;39.35;;;6.85;;
62707;SDS011;48769;51.624;5.886;2023-11-19T10:38:22;41.38;;;7.80;;
62707;SDS011;48769;51.624;5.886;2023-11-19T10:40:48;47.70;;;7.95;;
62707;SDS011;48769;51.624;5.886;2023-11-19T10:43:14;46.65;;;7.93;;
62707;SDS011;48769;51.624;5.886;2023-11-19T10:45:39;42.75;;;7.22;;
62707;SDS011;48769;51.624;5.886;2023-11-19T10:48:06;48.92;;;7.90;;
62707;SDS011;48769;51.624;5.886;2023-11-19T10:50:35;37.35;;;7.28;;
62707;SDS011;48769;51.624;5.886;2023-11-19T10:53:03;36.63;;;8.23;;
62707;SDS011;48769;51.624;5.886;2023-11-19T10:55:30;38.88;;;6.57;;
62707;SDS011;48769;51.624;5.886;2023-11-19T10:57:58;43.10;;;7.95;;
62707;SDS011;48769;51.624;5.886;2023-11-19T11:00:33;34.97;;;7.05;;
62707;SDS011;48769;51.624;5.886;2023-11-19T11:03:02;40.78;;;6.88;;
62707;SDS011;48769;51.624;5.886;2023-11-19T11:05:35;36.55;;;5.90;;
62707;SDS011;48769;51.624;5.886;2023-11-19T11:08:02;41.47;;;7.28;;
62707;SDS011;48769;51.624;5.886;2023-11-19T11:10:31;46.08;;;7.30;;
62707;SDS011;48769;51.624;5.886;2023-11-19T11:13:01;41.60;;;8.13;;
62707;SDS011;48769;51.624;5.886;2023-11-19T11:15:28;44.10;;;6.72;;
62707;SDS011;48769;51.624;5.886;2023-11-19T11:17:57;41.10;;;7.30;;
62707;SDS011;48769;51.624;5.886;2023-11-19T11:20:28;39.85;;;8.13;;
62707;SDS011;48769;51.624;5.886;2023-11-19T11:23:01;40.35;;;7.53;;
62707;SDS011;48769;51.624;5.886;2023-11-19T11:28:34;39.65;;;6.18;;
62707;SDS011;48769;51.624;5.886;2023-11-19T11:39:31;36.95;;;6.78;;
62707;SDS011;48769;51.624;5.886;2023-11-19T11:45:01;37.83;;;6.70;;
62707;SDS011;48769;51.624;5.886;2023-11-19T11:50:10;32.40;;;5.97;;
62707;SDS011;48769;51.624;5.886;2023-11-19T11:55:37;40.17;;;6.97;;
62707;SDS011;48769;51.624;5.886;2023-11-19T11:58:17;38.10;;;6.30;;
62707;SDS011;48769;51.624;5.886;2023-11-19T12:00:57;34.10;;;6.47;;
62707;SDS011;48769;51.624;5.886;2023-11-19T12:03:26;39.35;;;6.32;;
62707;SDS011;48769;51.624;5.886;2023-11-19T12:05:52;29.15;;;5.90;;
62707;SDS011;48769;51.624;5.886;2023-11-19T12:08:18;33.00;;;5.90;;
62707;SDS011;48769;51.624;5.886;2023-11-19T12:10:52;29.27;;;5.63;;
62707;SDS011;48769;51.624;5.886;2023-11-19T12:13:19;30.60;;;5.43;;
62707;SDS011;48769;51.624;5.886;2023-11-19T12:18:31;26.77;;;4.28;;
62707;SDS011;48769;51.624;5.886;2023-11-19T12:20:57;21.55;;;5.20;;
62707;SDS011;48769;51.624;5.886;2023-11-19T12:23:25;26.52;;;5.05;;
62707;SDS011;48769;51.624;5.886;2023-11-19T12:25:51;29.73;;;5.18;;
62707;SDS011;48769;51.624;5.886;2023-11-19T12:28:17;35.38;;;5.75;;
62707;SDS011;48769;51.624;5.886;2023-11-19T12:30:44;26.67;;;4.28;;
62707;SDS011;48769;51.624;5.886;2023-11-19T12:33:10;24.05;;;3.75;;
62707;SDS011;48769;51.624;5.886;2023-11-19T12:35:40;31.48;;;5.68;;
62707;SDS011;48769;51.624;5.886;2023-11-19T12:38:24;30.30;;;5.72;;
62707;SDS011;48769;51.624;5.886;2023-11-19T12:41:06;27.65;;;6.43;;
62707;SDS011;48769;51.624;5.886;2023-11-19T12:43:33;24.83;;;4.80;;
62707;SDS011;48769;51.624;5.886;2023-11-19T12:46:02;35.75;;;5.95;;
62707;SDS011;48769;51.624;5.886;2023-11-19T12:48:28;35.35;;;6.95;;
62707;SDS011;48769;51.624;5.886;2023-11-19T12:50:54;35.53;;;6.03;;
62707;SDS011;48769;51.624;5.886;2023-11-19T12:53:22;33.60;;;6.40;;
62707;SDS011;48769;51.624;5.886;2023-11-19T12:55:48;33.65;;;6.65;;
62707;SDS011;48769;51.624;5.886;2023-11-19T12:58:31;33.13;;;6.00;;
62707;SDS011;48769;51.624;5.886;2023-11-19T13:01:00;35.47;;;6.60;;
62707;SDS011;48769;51.624;5.886;2023-11-19T13:03:30;26.80;;;5.32;;
62707;SDS011;48769;51.624;5.886;2023-11-19T13:08:43;30.73;;;5.50;;
62707;SDS011;48769;51.624;5.886;2023-11-19T13:11:30;31.10;;;5.88;;
62707;SDS011;48769;51.624;5.886;2023-11-19T13:14:03;33.55;;;6.22;;
62707;SDS011;48769;51.624;5.886;2023-11-19T13:16:30;37.88;;;6.10;;
62707;SDS011;48769;51.624;5.886;2023-11-19T13:18:56;34.92;;;7.15;;
62707;SDS011;48769;51.624;5.886;2023-11-19T13:21:22;26.80;;;6.18;;
62707;SDS011;48769;51.624;5.886;2023-11-19T13:23:47;33.45;;;6.05;;
62707;SDS011;48769;51.624;5.886;2023-11-19T13:26:13;39.00;;;6.07;;
62707;SDS011;48769;51.624;5.886;2023-11-19T13:28:38;28.80;;;5.63;;
62707;SDS011;48769;51.624;5.886;2023-11-19T13:31:04;37.25;;;6.18;;
62707;SDS011;48769;51.624;5.886;2023-11-19T13:33:29;31.85;;;6.28;;
62707;SDS011;48769;51.624;5.886;2023-11-19T13:35:55;35.28;;;5.80;;
62707;SDS011;48769;51.624;5.886;2023-11-19T13:38:21;34.00;;;5.68;;
62707;SDS011;48769;51.624;5.886;2023-11-19T13:40:48;36.75;;;6.40;;
62707;SDS011;48769;51.624;5.886;2023-11-19T13:43:13;40.63;;;6.03;;
62707;SDS011;48769;51.624;5.886;2023-11-19T13:45:38;30.80;;;6.05;;
62707;SDS011;48769;51.624;5.886;2023-11-19T13:48:03;31.80;;;6.07;;
62707;SDS011;48769;51.624;5.886;2023-11-19T13:50:29;33.63;;;5.72;;
62707;SDS011;48769;51.624;5.886;2023-11-19T13:52:54;26.85;;;5.43;;
62707;SDS011;48769;51.624;5.886;2023-11-19T13:55:20;28.00;;;5.22;;
62707;SDS011;48769;51.624;5.886;2023-11-19T13:57:45;26.45;;;5.05;;
62707;SDS011;48769;51.624;5.886;2023-11-19T14:00:11;26.75;;;5.03;;
62707;SDS011;48769;51.624;5.886;2023-11-19T14:02:41;26.42;;;5.57;;
62707;SDS011;48769;51.624;5.886;2023-11-19T14:05:07;24.88;;;5.00;;
62707;SDS011;48769;51.624;5.886;2023-11-19T14:07:33;32.70;;;5.60;;
62707;SDS011;48769;51.624;5.886;2023-11-19T14:09:58;21.02;;;5.28;;
62707;SDS011;48769;51.624;5.886;2023-11-19T14:12:24;30.85;;;5.60;;
62707;SDS011;48769;51.624;5.886;2023-11-19T14:14:49;36.78;;;6.07;;
62707;SDS011;48769;51.624;5.886;2023-11-19T14:17:15;28.00;;;5.15;;
62707;SDS011;48769;51.624;5.886;2023-11-19T14:19:41;27.17;;;5.57;;
62707;SDS011;48769;51.624;5.886;2023-11-19T14:22:07;28.20;;;5.53;;
62707;SDS011;48769;51.624;5.886;2023-11-19T14:24:33;32.45;;;5.85;;
62707;SDS011;48769;51.624;5.886;2023-11-19T14:26:59;28.42;;;5.63;;
62707;SDS011;48769;51.624;5.886;2023-11-19T14:29:25;30.08;;;5.00;;
62707;SDS011;48769;51.624;5.886;2023-11-19T14:31:51;26.25;;;4.45;;
62707;SDS011;48769;51.624;5.886;2023-11-19T14:34:17;29.80;;;5.80;;
62707;SDS011;48769;51.624;5.886;2023-11-19T14:36:44;37.13;;;5.60;;
62707;SDS011;48769;51.624;5.886;2023-11-19T14:39:09;27.92;;;4.82;;
62707;SDS011;48769;51.624;5.886;2023-11-19T14:41:35;32.53;;;5.90;;
62707;SDS011;48769;51.624;5.886;2023-11-19T14:44:00;33.17;;;5.30;;
62707;SDS011;48769;51.624;5.886;2023-11-19T14:46:26;29.83;;;5.38;;
62707;SDS011;48769;51.624;5.886;2023-11-19T14:48:52;31.15;;;5.60;;
62707;SDS011;48769;51.624;5.886;2023-11-19T14:51:17;32.25;;;5.28;;
62707;SDS011;48769;51.624;5.886;2023-11-19T14:53:42;24.63;;;4.95;;
62707;SDS011;48769;51.624;5.886;2023-11-19T14:56:10;30.35;;;5.15;;